Time;durP1;ratioP1;P1;durP2;ratioP2;P2;SDS_P1;SDS_P2;PMS_P1;PMS_P2;Temp;Humidity;BMP_temperature;BMP_pressure;BME280_temperature;BME280_humidity;BME280_pressure;Samples;Min_cycle;Max_cycle;Signal;HPM_P1;HPM_P2
2021/05/04 00:02:01;;;;;;;4.82;1.23;;;;;;;13.42;42.22;100338.16;5013677;28;20042;-66
2021/05/04 00:04:28;;;;;;;2.88;1.20;;;;;;;13.79;42.11;100330.72;5011513;28;20046;-68
2021/05/04 00:06:55;;;;;;;4.22;1.15;;;;;;;13.78;42.01;100340.19;5013207;28;20076;-70
2021/05/04 00:09:23;;;;;;;7.28;1.52;;;;;;;13.91;41.24;100335.50;5013094;28;20046;-69
2021/05/04 00:11:51;;;;;;;6.93;1.50;;;;;;;13.89;41.49;100322.00;5013285;28;20050;-69
2021/05/04 00:14:18;;;;;;;5.22;1.40;;;;;;;13.93;42.67;100327.66;5013576;28;20397;-67
2021/05/04 00:16:45;;;;;;;4.35;1.23;;;;;;;13.82;43.27;100324.53;5012904;28;20052;-68
2021/05/04 00:19:12;;;;;;;3.97;1.30;;;;;;;13.78;44.20;100323.59;5011576;28;20046;-70
2021/05/04 00:21:40;;;;;;;7.75;1.70;;;;;;;13.33;45.43;100325.56;5012869;28;20056;-67
2021/05/04 00:24:07;;;;;;;7.65;2.13;;;;;;;12.70;47.72;100334.22;5013327;28;20048;-68
2021/05/04 00:26:34;;;;;;;5.05;1.85;;;;;;;13.29;46.69;100314.38;5013128;28;20050;-69
2021/05/04 00:29:01;;;;;;;6.00;1.58;;;;;;;13.10;47.79;100319.63;5012755;28;20054;-66
2021/05/04 00:31:28;;;;;;;5.35;1.58;;;;;;;13.30;47.26;100295.84;5027364;28;20060;-69
2021/05/04 00:33:55;;;;;;;2.42;1.30;;;;;;;13.52;47.06;100289.88;5012965;28;20046;-66
2021/05/04 00:36:22;;;;;;;7.60;1.50;;;;;;;13.12;47.78;100300.72;5013201;28;20057;-63
2021/05/04 00:38:50;;;;;;;2.97;1.40;;;;;;;12.90;47.40;100292.75;5011321;28;20054;-68
2021/05/04 00:41:17;;;;;;;4.05;1.27;;;;;;;13.15;48.38;100310.28;5012555;28;20050;-65
2021/05/04 00:48:22;;;;;;;4.15;1.35;;;;;;;12.61;48.89;100314.97;5013404;28;20064;-68
2021/05/04 00:50:49;;;;;;;4.28;1.25;;;;;;;12.54;50.05;100289.81;5012557;28;20065;-66
2021/05/04 00:53:16;;;;;;;2.67;1.40;;;;;;;12.74;49.64;100300.06;5012153;28;20072;-66
2021/05/04 00:55:43;;;;;;;4.05;1.35;;;;;;;13.12;48.80;100302.69;5012441;28;20058;-70
2021/05/04 01:02:47;;;;;;;4.85;1.30;;;;;;;13.16;49.06;100298.09;5012726;28;20038;-68
2021/05/04 01:05:14;;;;;;;3.97;1.10;;;;;;;13.23;49.10;100282.53;5011125;28;20057;-65
2021/05/04 01:07:41;;;;;;;2.72;1.17;;;;;;;13.17;48.85;100270.09;5012436;28;20046;-65
2021/05/04 01:10:08;;;;;;;4.28;1.20;;;;;;;13.15;48.91;100282.63;5012392;28;20061;-68
2021/05/04 01:12:35;;;;;;;6.40;1.17;;;;;;;13.04;49.64;100276.72;5010913;28;20512;-66
2021/05/04 01:15:04;;;;;;;2.33;1.00;;;;;;;13.06;49.12;100257.03;5012397;28;20056;-65
2021/05/04 01:17:31;;;;;;;3.30;1.13;;;;;;;13.35;49.09;100254.13;5010925;28;20054;-68
2021/05/04 01:19:58;;;;;;;2.42;1.23;;;;;;;13.07;49.33;100256.72;5012364;28;20057;-66
2021/05/04 01:22:25;;;;;;;2.97;1.17;;;;;;;13.11;49.15;100256.84;5010901;28;20144;-65
2021/05/04 01:24:52;;;;;;;6.75;1.30;;;;;;;13.04;48.77;100245.53;5012231;28;20045;-66
2021/05/04 01:27:19;;;;;;;4.50;1.40;;;;;;;13.03;49.66;100250.22;5009910;28;20058;-64
2021/05/04 01:29:46;;;;;;;7.72;1.20;;;;;;;13.14;49.77;100247.84;5011709;28;20053;-66
2021/05/04 01:32:13;;;;;;;2.97;1.05;;;;;;;13.14;49.24;100253.38;5012080;28;20057;-65
2021/05/04 01:34:41;;;;;;;2.50;1.05;;;;;;;13.24;49.02;100245.44;5010392;28;20053;-65
2021/05/04 01:37:10;;;;;;;3.10;1.20;;;;;;;13.12;48.68;100241.84;5011673;28;20062;-64
2021/05/04 01:39:44;;;;;;;3.00;1.20;;;;;;;13.19;48.68;100236.56;5011767;28;20129;-66
2021/05/04 01:42:13;;;;;;;3.85;1.30;;;;;;;13.03;48.66;100243.88;5012153;28;20053;-65
2021/05/04 01:44:40;;;;;;;5.18;1.10;;;;;;;12.91;50.07;100228.03;5011941;28;20041;-65
2021/05/04 01:47:08;;;;;;;2.70;1.10;;;;;;;13.05;49.07;100222.25;5033538;28;20060;-66
2021/05/04 01:49:37;;;;;;;2.92;1.10;;;;;;;13.10;50.27;100216.47;5051463;28;20057;-66
2021/05/04 01:52:06;;;;;;;3.97;1.27;;;;;;;12.97;49.34;100221.13;5033639;28;20060;-65
2021/05/04 01:54:33;;;;;;;2.40;1.20;;;;;;;13.01;49.25;100213.78;5034030;28;20052;-68
2021/05/04 01:57:00;;;;;;;3.28;1.10;;;;;;;13.28;49.17;100218.72;5050869;28;20378;-66
2021/05/04 02:03:56;;;;;;;5.75;0.98;;;;;;;13.07;49.53;100208.88;5050585;28;20144;-68
2021/05/04 02:06:23;;;;;;;4.13;1.10;;;;;;;13.18;48.54;100202.56;5016754;28;20068;-65
2021/05/04 02:08:50;;;;;;;2.30;1.13;;;;;;;13.40;48.29;100201.34;5051620;28;20048;-68
2021/05/04 02:11:17;;;;;;;2.28;0.98;;;;;;;13.53;48.34;100208.47;5051006;28;20049;-68
2021/05/04 02:18:12;;;;;;;2.10;0.95;;;;;;;13.34;49.31;100192.44;5050596;28;20053;-67
2021/05/04 02:20:39;;;;;;;4.97;1.00;;;;;;;12.96;49.09;100188.31;5051499;28;20045;-66
2021/05/04 02:23:06;;;;;;;4.25;1.20;;;;;;;13.07;49.27;100190.34;5050741;28;20053;-66
2021/05/04 02:25:33;;;;;;;1.90;1.10;;;;;;;13.00;49.03;100186.50;5033592;28;20048;-67
2021/05/04 02:32:27;;;;;;;4.78;1.15;;;;;;;13.07;49.54;100171.00;5050753;28;20045;-68
2021/05/04 02:34:54;;;;;;;3.80;1.00;;;;;;;12.75;50.61;100174.56;5050366;28;20053;-68
2021/05/04 02:37:21;;;;;;;2.75;1.00;;;;;;;12.31;52.14;100178.06;5033166;28;20147;-70
2021/05/04 02:39:48;;;;;;;5.72;1.40;;;;;;;12.70;51.01;100172.00;5032992;28;20568;-67
2021/05/04 02:42:15;;;;;;;8.50;1.48;;;;;;;12.86;51.18;100155.59;5035723;28;20049;-68
2021/05/04 02:49:19;;;;;;;3.90;1.42;;;;;;;13.08;50.28;100136.66;5014575;28;20049;-70
2021/05/04 02:51:46;;;;;;;7.47;1.58;;;;;;;12.78;50.57;100145.44;5015166;28;20045;-69
2021/05/04 02:54:13;;;;;;;4.10;1.30;;;;;;;12.88;50.68;100154.09;5014669;28;20038;-70
2021/05/04 02:56:42;;;;;;;2.85;1.13;;;;;;;13.00;51.82;100140.31;5014746;28;20152;-69
2021/05/04 03:03:46;;;;;;;3.35;1.10;;;;;;;12.71;52.08;100137.69;5014027;28;20049;-68
2021/05/04 03:06:13;;;;;;;4.18;1.27;;;;;;;13.11;51.42;100149.00;5014677;28;20049;-65
2021/05/04 03:08:41;;;;;;;5.97;1.27;;;;;;;12.90;52.26;100124.13;5013684;28;20046;-66
2021/05/04 03:11:08;;;;;;;6.63;1.30;;;;;;;12.75;52.76;100137.81;5014830;28;20046;-67
2021/05/04 03:13:35;;;;;;;3.40;1.30;;;;;;;12.79;52.80;100123.00;5014504;28;20042;-69
2021/05/04 03:16:02;;;;;;;4.43;1.40;;;;;;;12.61;54.45;100129.03;5014345;28;20054;-68
2021/05/04 03:18:29;;;;;;;5.40;1.50;;;;;;;12.86;54.29;100128.75;5013712;28;20056;-68
2021/05/04 03:20:56;;;;;;;5.85;1.42;;;;;;;12.94;54.34;100105.72;5014376;28;20050;-70
2021/05/04 03:23:23;;;;;;;3.30;1.20;;;;;;;12.86;53.94;100116.88;5014916;28;20053;-69
2021/05/04 03:25:51;;;;;;;6.30;1.45;;;;;;;13.05;53.83;100104.16;5014314;28;20405;-69
2021/05/04 03:28:18;;;;;;;4.20;1.40;;;;;;;13.26;52.92;100099.34;5012791;28;20054;-66
2021/05/04 03:30:46;;;;;;;5.20;1.30;;;;;;;12.91;53.35;100098.13;5012795;28;20057;-70
2021/05/04 03:33:14;;;;;;;4.38;1.35;;;;;;;12.95;54.30;100106.53;5014011;28;20042;-66
2021/05/04 03:35:42;;;;;;;5.20;1.50;;;;;;;13.32;53.14;100092.41;5014007;28;20050;-64
2021/05/04 03:38:09;;;;;;;4.28;1.20;;;;;;;13.34;52.27;100095.63;5013504;28;20795;-66
2021/05/04 03:40:36;;;;;;;5.13;1.20;;;;;;;13.29;53.14;100095.88;5013675;28;20133;-66
2021/05/04 03:43:03;;;;;;;4.50;1.10;;;;;;;13.03;52.92;100092.63;5013522;28;20469;-66
2021/05/04 03:50:10;;;;;;;4.95;1.52;;;;;;;12.87;54.27;100085.31;5013853;28;20046;-64
2021/05/04 03:52:37;;;;;;;6.30;1.83;;;;;;;12.84;54.42;100081.31;5013753;28;20409;-66
2021/05/04 03:55:04;;;;;;;4.80;1.50;;;;;;;12.93;53.92;100067.38;5013811;28;20049;-66
2021/05/04 03:57:32;;;;;;;7.88;1.17;;;;;;;13.05;53.50;100075.69;5013857;28;20067;-66
2021/05/04 04:04:35;;;;;;;5.85;1.42;;;;;;;13.22;53.87;100076.28;5013108;28;20054;-66
2021/05/04 04:07:02;;;;;;;8.05;1.50;;;;;;;13.14;53.85;100065.34;5011719;28;20072;-68
2021/05/04 04:09:29;;;;;;;2.97;1.13;;;;;;;13.23;54.03;100058.53;5012935;28;20057;-70
2021/05/04 04:11:56;;;;;;;5.20;1.17;;;;;;;13.41;53.28;100059.91;5011732;28;20057;-70
2021/05/04 04:14:23;;;;;;;4.40;1.30;;;;;;;13.47;53.64;100066.00;5011793;28;20100;-68
2021/05/04 04:16:50;;;;;;;7.30;1.25;;;;;;;13.21;54.56;100057.28;5013106;28;20057;-70
2021/05/04 04:19:17;;;;;;;4.53;1.50;;;;;;;13.21;54.31;100054.50;5012938;28;20050;-72
2021/05/04 04:21:44;;;;;;;2.30;1.20;;;;;;;13.25;54.28;100056.22;5013251;28;20050;-68
2021/05/04 04:24:12;;;;;;;8.75;1.40;;;;;;;13.30;54.32;100058.75;5013046;28;20077;-68
2021/05/04 04:26:39;;;;;;;6.57;1.30;;;;;;;12.97;55.01;100054.47;5012649;28;20060;-68
2021/05/04 04:29:06;;;;;;;5.68;1.30;;;;;;;12.91;56.14;100064.97;5012481;28;20050;-68
2021/05/04 04:31:34;;;;;;;8.25;1.35;;;;;;;13.02;56.32;100074.41;5012361;28;20405;-66
2021/05/04 04:34:01;;;;;;;4.75;1.48;;;;;;;13.31;55.84;100065.09;5012651;28;20058;-67
2021/05/04 04:36:28;;;;;;;5.03;1.30;;;;;;;13.19;55.94;100056.81;5012938;28;20053;-67
2021/05/04 04:38:55;;;;;;;7.13;1.40;;;;;;;13.42;55.90;100067.03;5012572;28;20489;-67
2021/05/04 04:41:40;;;;;;;7.03;1.73;;;;;;;12.99;56.60;100075.09;5011050;28;20421;-65
2021/05/04 04:44:08;;;;;;;3.80;1.48;;;;;;;13.05;56.95;100073.75;5011623;28;20050;-68
2021/05/04 04:46:41;;;;;;;6.80;1.23;;;;;;;12.77;58.28;100074.72;5012162;28;20058;-67
2021/05/04 04:49:19;;;;;;;6.80;1.83;;;;;;;12.74;58.66;100081.75;5038854;28;20060;-67
2021/05/04 04:51:47;;;;;;;4.63;1.60;;;;;;;12.72;59.13;100077.72;5051821;28;20041;-68
2021/05/04 04:54:14;;;;;;;10.55;1.95;;;;;;;12.65;59.71;100078.28;5033829;28;20048;-67
2021/05/04 04:56:42;;;;;;;5.90;1.80;;;;;;;12.89;59.44;100071.97;5034343;28;20053;-68
2021/05/04 04:59:09;;;;;;;8.90;1.65;;;;;;;13.32;58.13;100063.94;5052287;28;20048;-71
2021/05/04 05:01:36;;;;;;;7.68;1.70;;;;;;;13.23;58.49;100080.66;5033716;28;20399;-71
2021/05/04 05:04:04;;;;;;;4.90;1.30;;;;;;;13.15;58.84;100076.06;5051489;28;20061;-65
2021/05/04 05:06:32;;;;;;;7.93;1.98;;;;;;;12.56;60.63;100085.84;5051903;28;20053;-66
2021/05/04 05:09:01;;;;;;;5.75;1.42;;;;;;;12.38;61.76;100090.75;5033417;28;20058;-65
2021/05/04 05:11:28;;;;;;;8.25;1.65;;;;;;;12.42;61.60;100074.31;5051483;28;20045;-66
2021/05/04 05:13:57;;;;;;;9.80;1.52;;;;;;;12.70;60.81;100071.72;5034768;28;20057;-68
2021/05/04 05:21:04;;;;;;;9.50;1.30;;;;;;;13.45;59.64;100076.59;5051283;28;20373;-67
2021/05/04 05:23:32;;;;;;;4.57;1.40;;;;;;;13.64;59.07;100070.44;5050974;28;20045;-68
2021/05/04 05:26:02;;;;;;;7.55;1.45;;;;;;;13.74;58.50;100064.47;5034080;28;20055;-67
2021/05/04 05:28:29;;;;;;;;;;;;;;;13.25;59.86;100074.78;5051533;28;20441;-69
2021/05/04 05:30:56;;;;;;;6.00;1.50;;;;;;;13.48;59.09;100067.59;5033514;28;19927;-68
2021/05/04 05:33:24;;;;;;;4.50;1.30;;;;;;;13.52;59.17;100074.88;5051438;28;20045;-69
2021/05/04 05:35:51;;;;;;;7.00;1.50;;;;;;;13.54;60.21;100075.34;5033035;28;20079;-66
2021/05/04 05:38:27;;;;;;;7.07;1.70;;;;;;;13.20;62.31;100084.13;5034581;28;20053;-66
2021/05/04 05:40:54;;;;;;;7.93;1.98;;;;;;;13.09;63.20;100069.13;5034026;28;20041;-68
2021/05/04 05:43:22;;;;;;;5.72;2.00;;;;;;;13.30;62.58;100071.78;5050846;28;20068;-68
2021/05/04 05:45:50;;;;;;;7.88;2.20;;;;;;;13.67;60.99;100072.53;5050912;28;20053;-67
2021/05/04 05:48:17;;;;;;;4.50;1.67;;;;;;;13.33;62.46;100074.66;5033684;28;20068;-68
2021/05/04 05:50:44;;;;;;;6.10;2.28;;;;;;;13.17;63.67;100079.28;5032895;28;20053;-67
2021/05/04 05:53:11;;;;;;;7.68;1.90;;;;;;;12.78;65.79;100081.88;5050571;28;20056;-64
2021/05/04 05:55:38;;;;;;;2.20;1.30;;;;;;;13.35;64.24;100086.16;5051402;28;20423;-65
2021/05/04 05:58:05;;;;;;;7.40;1.70;;;;;;;13.20;64.95;100083.28;5051317;28;20159;-63
2021/05/04 06:00:33;;;;;;;4.57;1.70;;;;;;;13.48;63.69;100082.25;5050662;28;20099;-68
2021/05/04 06:03:03;;;;;;;7.60;1.70;;;;;;;13.50;63.37;100073.59;5050704;28;20064;-68
2021/05/04 06:05:33;;;;;;;9.32;1.88;;;;;;;13.83;61.74;100082.53;5033887;28;20068;-69
2021/05/04 06:08:00;;;;;;;;;;;;;;;13.79;61.64;100075.28;5033750;28;20063;-65
2021/05/04 06:10:29;;;;;;;6.20;1.75;;;;;;;13.55;62.50;100056.75;5050582;28;19921;-69
2021/05/04 06:13:03;;;;;;;6.00;1.80;;;;;;;13.25;63.25;100053.44;5033938;28;20056;-66
2021/05/04 06:15:30;;;;;;;5.70;1.60;;;;;;;13.48;62.87;100070.38;5051143;28;20049;-66
2021/05/04 06:17:57;;;;;;;5.25;1.48;;;;;;;13.34;63.30;100067.97;5054110;28;20053;-68
2021/05/04 06:21:10;;;;;;;4.18;1.35;;;;;;;13.54;62.42;100060.69;5450902;22;20049;-72
2021/05/04 06:23:41;;;;;;;4.82;1.60;;;;;;;13.68;62.08;100061.13;5010124;28;20062;-68
2021/05/04 06:26:08;;;;;;;3.33;1.30;;;;;;;13.67;62.18;100062.25;5013959;28;20045;-68
2021/05/04 06:28:35;;;;;;;6.55;1.50;;;;;;;13.72;61.70;100075.84;5012757;28;20060;-71
2021/05/04 06:31:05;;;;;;;6.22;1.30;;;;;;;13.55;62.60;100057.56;5012895;28;20081;-69
2021/05/04 06:33:32;;;;;;;5.75;1.60;;;;;;;12.96;64.98;100077.72;5012854;28;20050;-68
2021/05/04 06:36:00;;;;;;;11.25;1.77;;;;;;;13.07;64.99;100076.97;5012512;28;20053;-70
2021/05/04 06:38:27;;;;;;;6.25;1.65;;;;;;;13.39;64.26;100073.25;5014732;28;20069;-69
2021/05/04 06:40:54;;;;;;;4.10;1.17;;;;;;;13.74;63.80;100073.53;5011894;28;20053;-68
2021/05/04 06:43:22;;;;;;;5.47;1.17;;;;;;;13.68;63.73;100076.91;4987543;28;20046;-70
2021/05/04 06:45:49;;;;;;;4.35;1.70;;;;;;;13.42;64.81;100080.06;5002449;28;20045;-69
2021/05/04 06:48:16;;;;;;;8.10;1.52;;;;;;;13.55;65.22;100078.88;5011037;28;20160;-71
2021/05/04 06:50:43;;;;;;;6.57;1.98;;;;;;;13.66;64.79;100080.03;4978744;28;20471;-70
2021/05/04 06:53:10;;;;;;;8.05;1.95;;;;;;;14.02;63.21;100079.09;5013541;28;20049;-69
2021/05/04 06:55:37;;;;;;;5.65;1.77;;;;;;;14.10;62.97;100084.53;5011886;28;20496;-70
2021/05/04 06:58:04;;;;;;;9.77;2.13;;;;;;;14.20;63.29;100084.00;5012889;28;20046;-68
2021/05/04 07:00:31;;;;;;;10.73;2.13;;;;;;;14.38;62.42;100090.88;5013325;28;20053;-67
2021/05/04 07:03:01;;;;;;;7.97;2.03;;;;;;;14.22;62.66;100103.03;5012423;28;20042;-68
2021/05/04 07:05:28;;;;;;;5.78;1.63;;;;;;;14.00;63.52;100107.16;5011397;28;20060;-68
2021/05/04 07:07:55;;;;;;;7.28;1.92;;;;;;;14.03;63.41;100112.00;5012321;28;20061;-67
2021/05/04 07:10:22;;;;;;;6.53;1.50;;;;;;;14.38;62.44;100107.50;5011030;28;20038;-67
2021/05/04 07:12:49;;;;;;;5.03;1.30;;;;;;;14.48;62.12;100095.09;5002722;28;20050;-71
2021/05/04 07:15:16;;;;;;;4.93;1.20;;;;;;;14.68;61.66;100108.72;5006742;28;20057;-69
2021/05/04 07:17:43;;;;;;;5.68;1.60;;;;;;;14.71;61.46;100103.63;5002022;28;20046;-68
2021/05/04 07:20:11;;;;;;;6.53;1.45;;;;;;;14.39;62.53;100108.31;5004602;28;20053;-70
2021/05/04 07:22:38;;;;;;;7.72;1.60;;;;;;;14.24;63.34;100093.22;5003838;28;20061;-70
2021/05/04 07:25:05;;;;;;;7.03;2.10;;;;;;;14.29;63.67;100106.06;5003876;28;20061;-70
2021/05/04 07:27:33;;;;;;;8.25;1.38;;;;;;;14.20;64.45;100103.41;5008251;28;20061;-69
2021/05/04 07:30:00;;;;;;;3.47;1.20;;;;;;;14.01;65.48;100105.19;5008671;28;20324;-69
2021/05/04 07:32:27;;;;;;;15.10;4.90;;;;;;;14.42;64.35;100099.28;5005196;28;20062;-68
2021/05/04 07:34:54;;;;;;;6.93;1.70;;;;;;;14.39;64.95;100100.00;5000998;28;20045;-68
2021/05/04 07:37:21;;;;;;;6.35;1.48;;;;;;;14.31;64.96;100115.59;5008066;28;20046;-70
2021/05/04 07:39:48;;;;;;;8.23;1.42;;;;;;;14.62;63.95;100106.59;5010097;28;20374;-68
2021/05/04 07:42:15;;;;;;;6.28;1.88;;;;;;;14.55;63.56;100107.19;5005533;28;20370;-69
2021/05/04 07:44:45;;;;;;;;;;;;;;;14.30;64.43;100110.41;5008036;28;20049;-67
2021/05/04 07:47:12;;;;;;;6.78;1.60;;;;;;;14.18;65.22;100118.75;5009958;28;19944;-70
2021/05/04 07:49:44;;;;;;;7.40;1.67;;;;;;;14.64;63.65;100116.13;5010348;28;20065;-68
2021/05/04 07:52:11;;;;;;;7.65;1.55;;;;;;;14.60;62.97;100115.25;5010076;28;20149;-69
2021/05/04 07:54:40;;;;;;;6.70;1.60;;;;;;;14.27;64.60;100123.03;5012464;28;20050;-71
2021/05/04 07:57:07;;;;;;;8.52;1.40;;;;;;;14.51;63.91;100119.34;5010458;28;20064;-69
2021/05/04 07:59:34;;;;;;;2.78;1.42;;;;;;;14.98;62.79;100105.53;5010695;28;20049;-68
2021/05/04 08:02:02;;;;;;;6.55;2.15;;;;;;;15.02;61.95;100101.69;5011995;28;20057;-71
2021/05/04 08:04:30;;;;;;;9.35;1.85;;;;;;;15.07;61.83;100115.28;5011729;28;20041;-68
2021/05/04 08:07:00;;;;;;;4.45;1.50;;;;;;;14.98;61.71;100117.44;5011269;28;20054;-71
2021/05/04 08:09:28;;;;;;;5.43;1.70;;;;;;;14.81;62.33;100112.25;5010206;28;20042;-70
2021/05/04 08:11:56;;;;;;;8.43;1.35;;;;;;;14.87;62.15;100119.13;5012181;28;20539;-69
2021/05/04 08:14:24;;;;;;;4.75;1.40;;;;;;;14.75;62.78;100115.63;5011898;28;20046;-70
2021/05/04 08:16:53;;;;;;;6.63;1.30;;;;;;;14.94;61.92;100110.19;5011267;28;20058;-70
2021/05/04 08:19:20;;;;;;;7.20;1.60;;;;;;;14.91;62.85;100114.47;4992339;28;20042;-69
2021/05/04 08:21:48;;;;;;;5.80;1.90;;;;;;;14.93;63.11;100112.16;5010790;28;20041;-72
2021/05/04 08:24:15;;;;;;;4.03;1.30;;;;;;;14.93;62.72;100116.88;5008412;28;20048;-70
2021/05/04 08:26:42;;;;;;;6.80;1.80;;;;;;;15.08;62.35;100119.66;5008610;28;20068;-70
2021/05/04 08:29:10;;;;;;;5.07;1.80;;;;;;;14.83;62.82;100125.75;5008839;28;20082;-73
2021/05/04 08:31:37;;;;;;;8.07;1.85;;;;;;;14.73;62.19;100118.78;5009031;28;20049;-70
2021/05/04 08:34:09;;;;;;;4.32;1.20;;;;;;;14.82;62.37;100111.06;5010145;28;20046;-66
2021/05/04 08:36:36;;;;;;;6.28;2.20;;;;;;;15.03;61.50;100136.59;5010910;28;20583;-69
2021/05/04 08:39:04;;;;;;;4.95;1.40;;;;;;;14.99;61.01;100152.34;5008757;28;20073;-68
2021/05/04 08:41:34;;;;;;;5.53;2.13;;;;;;;14.85;61.80;100154.75;4989304;28;20421;-67
2021/05/04 08:44:02;;;;;;;5.75;1.55;;;;;;;14.71;62.35;100159.09;5003870;28;20057;-68
2021/05/04 08:46:34;;;;;;;7.45;1.30;;;;;;;14.14;64.67;100171.28;5005759;28;20053;-71
2021/05/04 08:49:05;;;;;;;6.97;1.60;;;;;;;14.16;65.79;100168.97;5001250;28;20049;-72
2021/05/04 08:51:33;;;;;;;7.70;1.52;;;;;;;14.04;65.56;100169.00;5002540;28;20050;-72
2021/05/04 08:54:03;;;;;;;7.22;1.52;;;;;;;14.24;66.11;100173.53;5004207;28;20053;-75
2021/05/04 08:56:30;;;;;;;6.38;1.23;;;;;;;14.89;63.94;100172.25;5001402;28;20064;-71
2021/05/04 08:58:57;;;;;;;8.50;1.70;;;;;;;14.51;63.46;100171.97;4999606;28;20503;-73
2021/05/04 09:01:24;;;;;;;11.77;1.50;;;;;;;13.72;65.21;100171.94;5000878;28;20539;-74
2021/05/04 09:03:55;;;;;;;7.32;1.30;;;;;;;13.76;65.97;100168.13;5005652;28;20069;-73
2021/05/04 09:06:35;;;;;;;7.00;1.58;;;;;;;13.90;64.90;100174.09;5005494;28;20038;-70
2021/05/04 09:09:14;;;;;;;7.57;1.33;;;;;;;13.92;65.23;100179.28;5003747;28;20053;-69
2021/05/04 09:14:53;;;;;;;5.95;1.77;;;;;;;13.96;64.82;100178.25;5006578;28;20041;-71
2021/05/04 09:17:38;;;;;;;5.25;1.45;;;;;;;14.27;62.78;100172.06;5004752;28;20058;-72
2021/05/04 09:22:46;;;;;;;8.60;1.50;;;;;;;14.54;62.17;100166.53;5006244;28;20069;-69
2021/05/04 09:25:30;;;;;;;6.00;1.65;;;;;;;14.81;61.96;100164.09;5004231;28;20060;-68
2021/05/04 09:28:05;;;;;;;5.97;1.27;;;;;;;15.00;60.02;100167.00;5005004;28;20045;-70
2021/05/04 09:30:34;;;;;;;6.28;1.95;;;;;;;15.31;58.93;100164.25;4989966;28;20046;-71
2021/05/04 09:33:12;;;;;;;9.15;2.20;;;;;;;14.99;58.78;100168.16;4988144;28;20057;-73
2021/05/04 09:35:39;;;;;;;8.90;1.35;;;;;;;14.67;58.67;100167.31;5007706;28;20061;-71
2021/05/04 09:38:10;;;;;;;7.07;1.42;;;;;;;15.04;57.49;100163.16;5005182;28;20497;-71
2021/05/04 09:40:41;;;;;;;10.30;1.88;;;;;;;15.31;56.66;100153.13;5006261;28;20073;-69
2021/05/04 09:43:27;;;;;;;6.68;1.70;;;;;;;15.34;56.65;100153.22;5004205;28;20061;-69
2021/05/04 09:45:56;;;;;;;8.02;1.88;;;;;;;15.55;54.84;100161.31;5006646;28;20057;-70
2021/05/04 09:48:32;;;;;;;7.15;1.52;;;;;;;15.24;55.57;100156.53;4987668;28;20054;-71
2021/05/04 09:51:11;;;;;;;9.98;1.90;;;;;;;15.21;54.88;100153.69;5010628;28;20050;-68
2021/05/04 09:53:50;;;;;;;7.35;1.58;;;;;;;15.54;53.76;100143.03;5013570;28;20386;-69
2021/05/04 09:56:31;;;;;;;11.80;1.70;;;;;;;15.47;52.60;100152.00;4997628;28;20050;-71
2021/05/04 09:58:59;;;;;;;8.90;1.48;;;;;;;15.61;51.99;100149.56;5013751;28;20476;-68
2021/05/04 10:01:29;;;;;;;;;;;;;;;15.56;51.56;100152.63;5010241;28;20059;-71
2021/05/04 10:03:56;;;;;;;9.60;2.42;;;;;;;15.48;51.86;100152.81;4987921;28;19932;-69
2021/05/04 10:06:24;;;;;;;9.80;1.52;;;;;;;15.29;52.68;100149.94;5007232;28;20489;-70
2021/05/04 10:08:51;;;;;;;14.38;1.92;;;;;;;15.68;52.38;100154.47;5010091;28;20065;-71
2021/05/04 10:11:21;;;;;;;12.32;1.88;;;;;;;15.65;49.75;100160.78;5012070;28;20077;-71
2021/05/04 10:13:56;;;;;;;11.98;2.03;;;;;;;15.37;51.47;100165.59;5011365;28;20038;-71
2021/05/04 10:16:25;;;;;;;9.20;2.03;;;;;;;14.95;50.38;100156.97;4996558;28;20042;-67
2021/05/04 10:18:56;;;;;;;12.18;2.45;;;;;;;14.75;50.78;100177.41;5007502;28;20061;-73
2021/05/04 10:21:25;;;;;;;11.73;2.13;;;;;;;14.51;51.58;100185.84;5008562;28;20073;-69
2021/05/04 10:23:52;;;;;;;8.55;2.00;;;;;;;14.45;51.55;100185.28;5012810;28;20049;-73
2021/05/04 10:26:21;;;;;;;8.35;1.88;;;;;;;14.81;52.02;100177.97;5009348;28;20038;-72
2021/05/04 10:28:55;;;;;;;11.57;2.30;;;;;;;14.58;51.40;100174.97;5001551;28;20054;-73
2021/05/04 10:31:57;;;;;;;12.50;2.75;;;;;;;14.50;51.49;100171.19;5004417;28;20037;-70
2021/05/04 10:34:34;;;;;;;9.32;1.90;;;;;;;14.48;52.33;100179.06;4956392;28;20059;-73
2021/05/04 10:37:26;;;;;;;12.57;2.63;;;;;;;14.57;52.29;100171.38;4961033;28;20047;-76
2021/05/04 10:39:53;;;;;;;11.52;2.60;;;;;;;14.60;52.13;100192.88;4957728;28;20043;-70
2021/05/04 10:42:40;;;;;;;22.15;4.13;;;;;;;14.55;53.07;100198.66;4956459;28;20050;-72
2021/05/04 10:45:50;;;;;;;17.42;3.53;;;;;;;14.56;55.29;100199.44;4958912;28;20055;-68
2021/05/04 10:48:18;;;;;;;12.27;2.58;;;;;;;14.17;55.25;100205.78;4950151;28;20580;-71
2021/05/04 10:50:55;;;;;;;19.83;4.10;;;;;;;14.36;60.88;100217.06;4926129;28;20046;-73
2021/05/04 10:53:25;;;;;;;14.93;3.53;;;;;;;14.24;58.48;100209.56;4959153;28;20054;-73
2021/05/04 10:55:56;;;;;;;18.30;3.20;;;;;;;14.49;56.45;100221.41;4958484;28;20514;-76
2021/05/04 10:58:24;;;;;;;16.40;3.22;;;;;;;13.88;58.08;100225.44;4958932;28;20072;-76
2021/05/04 11:01:06;;;;;;;23.17;3.65;;;;;;;14.33;61.23;100218.56;4942917;28;20198;-76
2021/05/04 11:03:42;;;;;;;18.35;4.38;;;;;;;15.05;55.99;100211.13;4958251;28;20220;-75
2021/05/04 11:06:37;;;;;;;14.07;2.55;;;;;;;14.67;53.22;100231.06;4960018;28;20083;-78
2021/05/04 11:09:04;;;;;;;12.00;2.65;;;;;;;14.40;54.61;100220.78;4961046;28;20047;-74
2021/05/04 11:14:06;;;;;;;9.88;2.30;;;;;;;14.75;52.71;100215.44;5005016;28;20437;-74
2021/05/04 11:16:46;;;;;;;12.95;3.00;;;;;;;14.88;54.38;100212.25;5009619;28;20045;-81
2021/05/04 11:19:16;;;;;;;11.32;2.63;;;;;;;14.70;51.85;100224.81;5008283;28;20049;-76
2021/05/04 11:21:54;;;;;;;12.25;2.10;;;;;;;14.47;52.47;100234.84;5008702;28;20066;-76
2021/05/04 11:24:35;;;;;;;15.32;2.83;;;;;;;14.64;54.31;100221.47;5005480;28;20382;-75
2021/05/04 11:27:05;;;;;;;9.15;2.30;;;;;;;14.62;52.12;100228.53;5010727;28;20219;-74
2021/05/04 11:29:32;;;;;;;11.13;2.58;;;;;;;14.88;51.99;100203.94;5005547;28;20042;-75
2021/05/04 11:32:24;;;;;;;12.47;2.33;;;;;;;14.64;51.40;100218.69;5006373;28;20046;-71
2021/05/04 11:34:59;;;;;;;10.00;2.10;;;;;;;14.62;51.43;100214.69;5008263;28;20056;-75
2021/05/04 11:37:32;;;;;;;11.35;1.98;;;;;;;14.53;51.62;100211.25;4989404;28;20054;-78
2021/05/04 11:40:19;;;;;;;9.98;2.30;;;;;;;14.57;51.72;100209.38;5007549;28;20469;-74
2021/05/04 11:42:59;;;;;;;10.65;2.42;;;;;;;14.72;53.02;100205.84;4990388;28;20050;-72
2021/05/04 11:45:29;;;;;;;17.83;2.60;;;;;;;14.75;52.57;100215.44;5004430;28;20058;-76
2021/05/04 11:48:04;;;;;;;19.83;2.65;;;;;;;14.75;54.45;100216.22;5005085;28;20061;-73
2021/05/04 11:50:36;;;;;;;15.30;3.58;;;;;;;14.86;57.81;100202.66;5007359;28;20414;-76
2021/05/04 11:53:05;;;;;;;12.82;2.78;;;;;;;14.58;56.50;100205.44;5007177;28;20046;-75
2021/05/04 11:55:34;;;;;;;8.32;2.20;;;;;;;14.48;56.71;100209.53;5002126;28;20060;-75
2021/05/04 11:58:20;;;;;;;11.50;2.45;;;;;;;14.84;57.28;100197.47;5007361;28;20045;-70
2021/05/04 12:00:57;;;;;;;11.40;2.63;;;;;;;15.15;55.25;100191.97;5007711;28;20054;-74
2021/05/04 12:03:25;;;;;;;11.52;2.40;;;;;;;15.05;53.99;100192.50;5004875;28;20056;-74
2021/05/04 12:06:01;;;;;;;10.93;2.63;;;;;;;15.18;56.47;100187.69;5008314;28;20042;-74
2021/05/04 12:08:32;;;;;;;12.90;2.28;;;;;;;15.46;51.34;100194.00;5005485;28;20508;-72
2021/05/04 12:10:59;;;;;;;8.90;2.10;;;;;;;15.22;52.67;100219.91;5008055;28;20052;-75
2021/05/04 12:13:39;;;;;;;14.80;2.72;;;;;;;14.73;51.76;100212.22;5000822;28;20065;-77
2021/05/04 12:16:06;;;;;;;13.27;2.22;;;;;;;14.80;50.79;100207.69;5000826;28;20061;-77
2021/05/04 12:18:37;;;;;;;12.00;1.90;;;;;;;14.96;50.50;100211.28;5005747;28;20054;-73
2021/05/04 12:21:10;;;;;;;10.20;2.08;;;;;;;14.82;50.99;100201.78;5002494;28;20064;-77
2021/05/04 12:23:37;;;;;;;10.50;2.28;;;;;;;14.45;51.12;100206.66;5006894;28;20054;-73
2021/05/04 12:26:11;;;;;;;13.25;2.83;;;;;;;14.66;51.39;100212.81;5001676;28;20072;-72
2021/05/04 12:28:47;;;;;;;16.55;2.42;;;;;;;14.54;50.49;100202.56;5006022;28;20061;-73
2021/05/04 12:31:23;;;;;;;14.32;2.75;;;;;;;14.59;49.33;100216.19;5001365;28;20050;-76